createdAt,value
2018-04-25T00:01:41.667Z,89.00
2018-04-25T00:04:09.918Z,88.60
2018-04-25T00:06:38.968Z,87.90
2018-04-25T00:09:07.209Z,87.90
2018-04-25T00:11:35.512Z,87.50
2018-04-25T00:14:03.789Z,87.50
2018-04-25T00:16:32.047Z,87.30
2018-04-25T00:19:00.337Z,87.60
2018-04-25T00:21:28.631Z,87.50
2018-04-25T00:23:56.887Z,87.20
2018-04-25T00:26:25.139Z,87.50
2018-04-25T00:28:53.443Z,87.60
2018-04-25T00:31:21.699Z,87.40
2018-04-25T00:33:50.019Z,87.40
2018-04-25T00:36:18.371Z,87.50
2018-04-25T00:38:46.634Z,87.50
2018-04-25T00:41:14.905Z,87.60
2018-04-25T00:43:43.146Z,87.80
2018-04-25T00:46:12.162Z,88.20
2018-04-25T00:48:40.410Z,88.00
2018-04-25T00:51:08.672Z,88.10
2018-04-25T00:53:37.018Z,88.20
2018-04-25T00:56:05.288Z,88.30
2018-04-25T00:58:33.536Z,88.10
2018-04-25T01:01:02.571Z,87.90
2018-04-25T01:03:30.831Z,87.90
2018-04-25T01:05:59.110Z,87.80
2018-04-25T01:08:27.398Z,87.70
2018-04-25T01:10:55.647Z,87.70
2018-04-25T01:13:23.898Z,87.40
2018-04-25T01:15:52.940Z,87.20
2018-04-25T01:18:21.202Z,87.20
2018-04-25T01:20:49.456Z,87.10
2018-04-25T01:23:20.322Z,87.00
2018-04-25T01:25:48.581Z,86.70
2018-04-25T01:28:22.603Z,86.30
2018-04-25T01:33:54.704Z,86.20
2018-04-25T01:36:37.914Z,86.10
2018-04-25T01:39:09.988Z,86.30
2018-04-25T01:41:40.043Z,87.00
2018-04-25T01:44:23.947Z,86.50
2018-04-25T01:46:52.979Z,86.70
2018-04-25T01:49:23.990Z,86.90
2018-04-25T01:52:04.191Z,87.10
2018-04-25T01:54:50.425Z,87.30
2018-04-25T01:57:36.515Z,87.30
2018-04-25T02:00:22.895Z,88.40
2018-04-25T02:02:56.584Z,87.70
2018-04-25T02:05:24.695Z,87.60
2018-04-25T02:07:52.973Z,87.80
2018-04-25T02:10:21.219Z,87.90
2018-04-25T02:12:49.463Z,88.00
2018-04-25T02:15:17.798Z,88.10
2018-04-25T02:17:46.067Z,88.30
2018-04-25T02:20:14.346Z,88.20
2018-04-25T02:22:42.600Z,88.30
2018-04-25T02:25:10.851Z,88.40
2018-04-25T02:27:39.891Z,88.60
2018-04-25T02:30:08.174Z,88.50
2018-04-25T02:32:36.415Z,88.50
2018-04-25T02:35:04.668Z,88.40
2018-04-25T02:37:33.675Z,88.40
2018-04-25T02:40:02.697Z,88.60
2018-04-25T02:42:30.939Z,88.60
2018-04-25T02:44:59.974Z,88.60
2018-04-25T02:47:28.251Z,88.60
2018-04-25T02:49:56.501Z,88.20
2018-04-25T02:52:24.807Z,88.00
2018-04-25T02:54:53.071Z,87.70
2018-04-25T02:57:21.335Z,87.50
2018-04-25T02:59:49.589Z,87.20
2018-04-25T03:02:18.599Z,86.60
2018-04-25T03:04:46.891Z,86.50
2018-04-25T03:07:16.107Z,86.40
2018-04-25T03:09:44.364Z,86.10
2018-04-25T03:12:12.643Z,85.90
2018-04-25T03:14:40.919Z,85.70
2018-04-25T03:17:09.168Z,85.80
2018-04-25T03:19:37.402Z,85.60
2018-04-25T03:22:05.746Z,85.70
2018-04-25T03:24:33.982Z,85.70
2018-04-25T03:27:02.996Z,85.80
2018-04-25T03:29:31.242Z,85.80
2018-04-25T03:31:59.483Z,85.70
2018-04-25T03:34:27.727Z,85.60
2018-04-25T03:36:55.982Z,85.70
2018-04-25T03:39:24.227Z,85.50
2018-04-25T03:41:52.478Z,85.40
2018-04-25T03:44:20.715Z,85.00
2018-04-25T03:46:48.963Z,84.90
2018-04-25T03:49:17.970Z,85.10
2018-04-25T03:51:46.983Z,84.70
2018-04-25T03:54:15.227Z,84.60
2018-04-25T03:56:44.235Z,84.50
2018-04-25T03:59:12.494Z,84.60
2018-04-25T04:01:40.722Z,84.70
2018-04-25T04:04:09.498Z,84.60
2018-04-25T04:06:37.763Z,84.50
2018-04-25T04:09:06.055Z,84.50
2018-04-25T04:11:34.312Z,84.60
2018-04-25T04:14:02.599Z,84.20
2018-04-25T04:16:30.880Z,84.50
2018-04-25T04:18:59.119Z,84.40
2018-04-25T04:21:28.128Z,84.30
2018-04-25T04:23:56.420Z,85.00
2018-04-25T04:26:24.695Z,84.30
2018-04-25T04:28:52.975Z,84.40
2018-04-25T04:31:22.170Z,84.50
2018-04-25T04:33:50.429Z,84.30
2018-04-25T04:36:18.672Z,84.30
2018-04-25T04:38:47.692Z,84.30
2018-04-25T04:41:15.931Z,84.30
2018-04-25T04:43:44.263Z,84.00
2018-04-25T04:46:12.520Z,84.00
2018-04-25T04:48:40.770Z,83.60
2018-04-25T04:51:09.819Z,83.20
2018-04-25T04:53:38.063Z,83.30
2018-04-25T04:56:06.302Z,83.10
2018-04-25T04:58:34.646Z,83.00
2018-04-25T05:01:02.866Z,83.00
2018-04-25T05:03:31.878Z,82.80
2018-04-25T05:06:00.118Z,82.70
2018-04-25T05:08:28.428Z,82.50
2018-04-25T05:10:56.595Z,82.20
2018-04-25T05:13:25.620Z,81.30
2018-04-25T05:15:53.858Z,81.30
2018-04-25T05:18:22.894Z,81.10
2018-04-25T05:20:51.139Z,81.10
2018-04-25T05:23:19.379Z,80.90
2018-04-25T05:25:48.134Z,80.30
2018-04-25T05:28:16.394Z,80.20
2018-04-25T05:30:44.635Z,80.30
2018-04-25T05:33:13.647Z,79.80
2018-04-25T05:35:41.899Z,79.80
2018-04-25T05:38:10.907Z,79.40
2018-04-25T05:40:39.927Z,78.90
2018-04-25T05:43:08.167Z,78.90
2018-04-25T05:45:37.187Z,78.70
2018-04-25T05:48:05.419Z,78.70
2018-04-25T05:50:33.667Z,77.90
2018-04-25T05:53:01.918Z,78.20
2018-04-25T05:55:30.194Z,76.30
2018-04-25T05:57:58.487Z,75.30
2018-04-25T06:00:27.713Z,74.80
2018-04-25T06:02:57.454Z,72.90
2018-04-25T06:05:25.751Z,72.90
2018-04-25T06:07:54.031Z,72.90
2018-04-25T06:10:22.278Z,73.50
2018-04-25T06:12:50.514Z,73.10
2018-04-25T06:15:19.635Z,73.20
2018-04-25T06:17:48.638Z,73.30
2018-04-25T06:20:17.058Z,73.20
2018-04-25T06:22:45.193Z,74.20
2018-04-25T06:25:13.443Z,74.90
2018-04-25T06:27:41.779Z,75.00
2018-04-25T06:30:10.036Z,74.90
2018-04-25T06:32:38.319Z,75.00
2018-04-25T06:35:06.596Z,74.50
2018-04-25T06:37:34.839Z,74.40
2018-04-25T06:40:03.851Z,74.20
2018-04-25T06:42:32.166Z,74.20
2018-04-25T06:45:00.430Z,73.10
2018-04-25T06:47:28.651Z,71.50
2018-04-25T06:49:57.696Z,67.40
2018-04-25T06:52:25.960Z,67.30
2018-04-25T06:54:54.234Z,65.60
2018-04-25T06:57:22.966Z,62.00
2018-04-25T06:59:51.308Z,59.20
2018-04-25T07:02:19.578Z,58.60
2018-04-25T07:04:47.846Z,58.80
2018-04-25T07:07:16.580Z,58.40
2018-04-25T07:09:44.806Z,56.40
2018-04-25T07:12:13.051Z,54.70
2018-04-25T07:14:42.075Z,54.50
2018-04-25T07:17:10.350Z,54.50
2018-04-25T07:19:38.587Z,53.50
2018-04-25T07:22:07.624Z,52.80
2018-04-25T07:24:35.855Z,52.80
2018-04-25T07:27:04.862Z,54.40
2018-04-25T07:29:33.201Z,54.40
2018-04-25T07:32:01.407Z,54.00
2018-04-25T07:34:30.434Z,52.80
2018-04-25T07:36:58.675Z,52.80
2018-04-25T07:39:27.693Z,51.90
2018-04-25T07:41:55.998Z,51.90
2018-04-25T07:44:24.262Z,50.30
2018-04-25T07:46:52.538Z,49.60
2018-04-25T07:49:20.772Z,49.60
2018-04-25T07:51:49.795Z,47.40
2018-04-25T07:54:18.191Z,47.30
2018-04-25T07:56:46.342Z,47.10
2018-04-25T07:59:14.625Z,46.90
2018-04-25T08:01:42.898Z,47.50
2018-04-25T08:04:11.174Z,47.30
2018-04-25T08:06:40.111Z,46.20
2018-04-25T08:09:08.443Z,46.30
2018-04-25T08:11:36.691Z,45.90
2018-04-25T08:14:16.807Z,45.70
2018-04-25T08:16:57.080Z,45.50
2018-04-25T08:19:37.259Z,47.00
2018-04-25T08:22:05.507Z,47.90
2018-04-25T08:24:33.831Z,45.70
2018-04-25T08:27:02.103Z,45.30
2018-04-25T08:29:30.339Z,43.60
2018-04-25T08:31:59.476Z,42.40
2018-04-25T08:34:27.710Z,41.80
2018-04-25T08:36:56.713Z,42.90
2018-04-25T08:39:25.736Z,44.30
2018-04-25T08:41:54.011Z,44.30
2018-04-25T08:44:22.287Z,46.30
2018-04-25T08:46:50.523Z,48.20
2018-04-25T08:49:19.534Z,50.70
2018-04-25T08:51:47.831Z,50.70
2018-04-25T08:54:16.110Z,51.80
2018-04-25T08:56:44.348Z,52.80
2018-04-25T08:59:13.456Z,54.40
2018-04-25T09:01:41.614Z,54.30
2018-04-25T09:04:10.627Z,54.20
2018-04-25T09:06:38.931Z,54.20
2018-04-25T09:09:07.188Z,53.70
2018-04-25T09:11:35.475Z,53.50
2018-04-25T09:14:03.747Z,53.10
2018-04-25T09:16:31.979Z,52.80
2018-04-25T09:19:00.995Z,52.40
2018-04-25T09:21:29.293Z,52.30
2018-04-25T09:23:57.531Z,51.90
2018-04-25T09:26:26.531Z,52.10
2018-04-25T09:28:54.832Z,52.00
2018-04-25T09:31:23.925Z,52.50
2018-04-25T09:33:52.201Z,54.40
2018-04-25T09:36:20.431Z,55.60
2018-04-25T09:38:48.674Z,56.70
2018-04-25T09:41:16.911Z,57.60
2018-04-25T09:43:45.159Z,58.60
2018-04-25T09:46:14.244Z,58.70
2018-04-25T09:48:42.467Z,58.60
2018-04-25T09:51:10.711Z,59.90
2018-04-25T09:53:40.561Z,63.10
2018-04-25T09:56:09.615Z,63.10
2018-04-25T09:58:38.650Z,64.50
2018-04-25T10:01:06.890Z,64.40
2018-04-25T10:03:35.894Z,66.60
2018-04-25T10:06:04.191Z,66.60
2018-04-25T10:08:32.439Z,68.90
2018-04-25T10:11:01.467Z,72.30
2018-04-25T10:13:29.732Z,72.30
2018-04-25T10:15:57.986Z,73.20
2018-04-25T10:18:26.228Z,67.90
2018-04-25T10:20:54.558Z,66.80
2018-04-25T10:23:22.800Z,63.60
2018-04-25T10:25:51.831Z,59.50
2018-04-25T10:28:20.779Z,59.40
2018-04-25T10:30:49.806Z,55.50
2018-04-25T10:33:18.039Z,55.50
2018-04-25T10:35:46.359Z,55.20
2018-04-25T10:38:14.604Z,54.20
2018-04-25T10:40:44.003Z,53.10
2018-04-25T10:43:12.319Z,53.00
2018-04-25T10:45:40.562Z,55.40
2018-04-25T10:48:09.567Z,60.10
2018-04-25T10:50:37.857Z,60.10
2018-04-25T10:53:06.093Z,59.80
2018-04-25T10:55:35.143Z,60.20
2018-04-25T10:58:03.474Z,60.20
2018-04-25T11:00:32.494Z,57.70
2018-04-25T11:03:00.730Z,57.60
2018-04-25T11:05:29.767Z,58.50
2018-04-25T11:07:58.003Z,58.40
2018-04-25T11:10:27.027Z,57.70
2018-04-25T11:12:55.267Z,57.70
2018-04-25T11:15:24.274Z,57.00
2018-04-25T11:17:52.572Z,57.00
2018-04-25T11:20:20.905Z,56.00
2018-04-25T11:22:49.115Z,56.80
2018-04-25T11:25:17.364Z,56.80
2018-04-25T11:27:46.368Z,54.80
2018-04-25T11:30:15.398Z,53.90
2018-04-25T11:32:43.654Z,53.80
2018-04-25T11:35:11.891Z,53.50
2018-04-25T11:37:40.372Z,52.90
2018-04-25T11:40:08.579Z,51.80
2018-04-25T11:42:37.014Z,52.70
2018-04-25T11:45:05.247Z,52.90
2018-04-25T11:47:33.498Z,51.90
2018-04-25T11:50:01.746Z,52.30
2018-04-25T11:52:29.999Z,51.80
2018-04-25T11:54:58.227Z,52.30
2018-04-25T11:57:26.518Z,52.90
2018-04-25T11:59:54.754Z,54.00
2018-04-25T12:02:23.071Z,54.60
2018-04-25T12:04:51.987Z,54.40
2018-04-25T12:07:20.927Z,53.40
2018-04-25T12:09:49.230Z,53.40
2018-04-25T12:12:17.526Z,52.90
2018-04-25T12:14:46.478Z,53.90
2018-04-25T12:17:14.801Z,53.90
2018-04-25T12:19:43.052Z,54.10
2018-04-25T12:22:11.298Z,53.60
2018-04-25T12:24:39.531Z,54.20
2018-04-25T12:27:07.771Z,54.30
2018-04-25T12:29:36.106Z,53.70
2018-04-25T12:32:04.296Z,54.10
2018-04-25T12:34:33.670Z,54.80
2018-04-25T12:37:01.907Z,54.80
2018-04-25T12:39:30.139Z,54.90
2018-04-25T12:41:59.175Z,55.20
2018-04-25T12:44:27.451Z,55.10
2018-04-25T12:46:55.763Z,55.40
2018-04-25T12:49:23.976Z,55.40
2018-04-25T12:51:52.235Z,55.10
2018-04-25T12:54:21.275Z,55.90
2018-04-25T12:56:49.540Z,55.80
2018-04-25T12:59:17.810Z,56.90
2018-04-25T13:01:46.216Z,57.20
2018-04-25T13:04:14.371Z,57.70
2018-04-25T13:06:42.599Z,57.60
2018-04-25T13:09:11.617Z,55.90
2018-04-25T13:11:39.847Z,55.80
2018-04-25T13:14:08.095Z,55.50
2018-04-25T13:16:36.331Z,53.60
2018-04-25T13:19:04.631Z,55.30
2018-04-25T13:21:32.907Z,56.30
2018-04-25T13:24:01.287Z,56.10
2018-04-25T13:26:29.522Z,58.20
2018-04-25T13:28:58.526Z,57.80
2018-04-25T13:31:27.531Z,57.40
2018-04-25T13:33:55.822Z,57.40
2018-04-25T13:36:24.109Z,59.00
2018-04-25T13:38:52.371Z,60.10
2018-04-25T13:41:20.696Z,59.80
2018-04-25T13:43:48.911Z,59.70
2018-04-25T13:46:17.150Z,59.20
2018-04-25T13:48:45.479Z,59.40
2018-04-25T13:51:13.785Z,58.00
2018-04-25T13:53:42.058Z,57.70
2018-04-25T13:56:10.290Z,56.50
2018-04-25T13:58:38.546Z,57.40
2018-04-25T14:01:07.573Z,58.10
2018-04-25T14:03:35.822Z,58.10
2018-04-25T14:06:04.098Z,57.70
2018-04-25T14:08:33.101Z,56.20
2018-04-25T14:11:01.341Z,56.10
2018-04-25T14:13:29.939Z,57.00
2018-04-25T14:15:58.971Z,57.50
2018-04-25T14:18:27.248Z,57.40
2018-04-25T14:20:55.493Z,57.60
2018-04-25T14:23:24.544Z,58.10
2018-04-25T14:25:52.797Z,58.10
2018-04-25T14:28:21.031Z,58.50
2018-04-25T14:30:50.047Z,59.00
2018-04-25T14:33:18.315Z,59.10
2018-04-25T14:35:46.603Z,59.10
2018-04-25T14:38:15.476Z,59.80
2018-04-25T14:40:43.730Z,59.60
2018-04-25T14:43:12.739Z,58.60
2018-04-25T14:45:41.751Z,56.20
2018-04-25T14:48:10.031Z,56.20
2018-04-25T14:50:38.282Z,55.80
2018-04-25T14:53:06.583Z,56.00
2018-04-25T14:55:34.869Z,57.00
2018-04-25T14:58:03.105Z,57.00
2018-04-25T15:00:32.106Z,57.50
2018-04-25T15:03:00.343Z,57.50
2018-04-25T15:05:30.100Z,58.40
2018-04-25T15:07:58.391Z,58.40
2018-04-25T15:10:27.478Z,58.70
2018-04-25T15:12:55.756Z,59.50
2018-04-25T15:15:24.003Z,59.30
2018-04-25T15:17:53.008Z,59.50
2018-04-25T15:20:21.298Z,59.50
2018-04-25T15:22:49.542Z,59.40
2018-04-25T15:25:18.555Z,59.50
2018-04-25T15:27:46.847Z,59.50
2018-04-25T15:30:15.096Z,59.40
2018-04-25T15:32:43.337Z,59.30
2018-04-25T15:35:11.664Z,59.40
2018-04-25T15:37:39.908Z,59.60
2018-04-25T15:40:08.915Z,59.50
2018-04-25T15:42:37.906Z,59.50
2018-04-25T15:45:06.163Z,59.50
2018-04-25T15:47:35.181Z,59.90
2018-04-25T15:50:03.472Z,59.90
2018-04-25T15:52:31.754Z,59.80
2018-04-25T15:54:59.999Z,60.70
2018-04-25T15:57:28.241Z,61.30
2018-04-25T15:59:56.507Z,61.10
2018-04-25T16:02:24.843Z,61.60
2018-04-25T16:04:53.088Z,61.70
2018-04-25T16:07:22.119Z,62.00
2018-04-25T16:09:50.396Z,62.00
2018-04-25T16:12:18.743Z,62.50
2018-04-25T16:14:46.923Z,62.60
2018-04-25T16:17:15.166Z,62.60
2018-04-25T16:19:44.315Z,62.90
2018-04-25T16:22:12.563Z,62.80
2018-04-25T16:24:40.911Z,63.00
2018-04-25T16:27:09.131Z,62.30
2018-04-25T16:29:37.414Z,62.30
2018-04-25T16:32:05.731Z,62.00
2018-04-25T16:34:33.931Z,62.20
2018-04-25T16:37:02.943Z,62.40
2018-04-25T16:39:31.240Z,62.40
2018-04-25T16:41:59.487Z,62.10
2018-04-25T16:44:27.784Z,62.00
2018-04-25T16:46:56.030Z,62.40
2018-04-25T16:49:25.055Z,63.80
2018-04-25T16:51:53.368Z,63.90
2018-04-25T16:54:21.753Z,64.80
2018-04-25T16:56:49.971Z,65.00
2018-04-25T16:59:18.846Z,65.60
2018-04-25T17:01:47.863Z,65.00
2018-04-25T17:04:16.102Z,64.90
2018-04-25T17:06:45.147Z,65.30
2018-04-25T17:09:13.410Z,65.30
2018-04-25T17:11:41.686Z,65.60
2018-04-25T17:14:09.931Z,65.70
2018-04-25T17:16:38.954Z,66.70
2018-04-25T17:19:07.198Z,66.80
2018-04-25T17:21:36.226Z,67.90
2018-04-25T17:24:04.467Z,67.80
2018-04-25T17:26:33.486Z,69.90
2018-04-25T17:29:01.811Z,69.80
2018-04-25T17:31:30.019Z,70.60
2018-04-25T17:33:58.315Z,70.30
2018-04-25T17:36:26.547Z,70.50
2018-04-25T17:38:55.554Z,71.30
2018-04-25T17:41:23.850Z,71.10
2018-04-25T17:43:52.100Z,71.40
2018-04-25T17:46:21.142Z,72.70
2018-04-25T17:48:49.380Z,72.60
2018-04-25T17:51:17.623Z,73.50
2018-04-25T17:53:45.960Z,74.40
2018-04-25T17:56:14.199Z,74.90
2018-04-25T17:58:43.212Z,75.20
2018-04-25T18:01:11.451Z,75.30
2018-04-25T18:03:39.695Z,75.20
2018-04-25T18:06:07.949Z,75.20
2018-04-25T18:08:36.230Z,75.30
2018-04-25T18:11:05.291Z,75.30
2018-04-25T18:13:33.611Z,75.30
2018-04-25T18:16:01.934Z,75.40
2018-04-25T18:18:30.966Z,76.70
2018-04-25T18:20:59.691Z,76.60
2018-04-25T18:23:27.934Z,77.10
2018-04-25T18:25:56.183Z,77.30
2018-04-25T18:28:24.431Z,78.20
2018-04-25T18:30:53.462Z,79.30
2018-04-25T18:33:21.753Z,79.30
2018-04-25T18:35:49.998Z,79.80
2018-04-25T18:38:18.252Z,80.30
2018-04-25T18:40:47.283Z,82.30
2018-04-25T18:43:15.530Z,82.20
2018-04-25T18:45:43.775Z,82.40
2018-04-25T18:48:12.111Z,82.70
2018-04-25T18:50:40.362Z,83.20
2018-04-25T18:53:08.668Z,83.70
2018-04-25T18:55:36.986Z,84.20
2018-04-25T18:58:05.311Z,84.70
2018-04-25T19:00:33.585Z,85.00
2018-04-25T19:03:01.832Z,85.70
2018-04-25T19:05:30.847Z,86.10
2018-04-25T19:07:59.143Z,86.20
2018-04-25T19:10:27.395Z,86.20
2018-04-25T19:12:55.644Z,86.20
2018-04-25T19:15:24.692Z,85.60
2018-04-25T19:17:52.892Z,85.60
2018-04-25T19:20:21.138Z,85.30
2018-04-25T19:22:49.380Z,84.90
2018-04-25T19:25:17.632Z,84.60
2018-04-25T19:27:46.642Z,82.10
2018-04-25T19:30:14.939Z,82.10
2018-04-25T19:32:43.215Z,81.00
2018-04-25T19:35:11.495Z,80.60
2018-04-25T19:37:39.771Z,79.80
2018-04-25T19:40:08.019Z,79.50
2018-04-25T19:42:36.257Z,78.80
2018-04-25T19:45:04.510Z,78.70
2018-04-25T19:47:32.747Z,79.10
2018-04-25T19:50:01.053Z,79.20
2018-04-25T19:52:30.918Z,78.90
2018-04-25T19:54:59.950Z,78.60
2018-04-25T19:57:28.264Z,78.60
2018-04-25T19:59:57.213Z,77.20
2018-04-25T20:02:25.456Z,78.00
2018-04-25T20:04:54.589Z,76.30
2018-04-25T20:07:22.835Z,76.30
2018-04-25T20:09:51.082Z,76.30
2018-04-25T20:12:20.090Z,76.30
2018-04-25T20:14:49.106Z,76.90
2018-04-25T20:17:17.811Z,76.90
2018-04-25T20:19:46.042Z,76.80
2018-04-25T20:22:15.059Z,77.00
2018-04-25T20:24:43.297Z,76.90
2018-04-25T20:27:11.546Z,75.40
2018-04-25T20:29:39.948Z,74.80
2018-04-25T20:32:08.879Z,73.10
2018-04-25T20:34:37.123Z,73.10
2018-04-25T20:37:05.431Z,71.40
2018-04-25T20:39:33.659Z,70.90
2018-04-25T20:42:02.702Z,69.60
2018-04-25T20:44:30.943Z,70.10
2018-04-25T20:46:59.993Z,68.50
2018-04-25T20:49:28.259Z,68.50
2018-04-25T20:51:56.513Z,68.30
2018-04-25T20:54:24.802Z,67.50
2018-04-25T20:56:53.071Z,66.70
2018-04-25T20:59:21.295Z,66.80
2018-04-25T21:01:50.347Z,67.30
2018-04-25T21:04:18.623Z,66.30
2018-04-25T21:06:46.999Z,66.00
2018-04-25T21:09:15.251Z,65.50
2018-04-25T21:14:18.864Z,65.60
2018-04-25T21:16:47.171Z,65.50
2018-04-25T21:19:15.419Z,66.00
2018-04-25T21:21:44.427Z,66.20
2018-04-25T21:24:12.666Z,66.20
2018-04-25T21:26:42.618Z,66.60
2018-04-25T21:29:10.882Z,66.60
2018-04-25T21:31:39.908Z,67.20
2018-04-25T21:34:08.148Z,67.20
2018-04-25T21:36:36.446Z,67.40
2018-04-25T21:39:04.720Z,67.40
2018-04-25T21:41:32.995Z,67.90
2018-04-25T21:44:01.235Z,68.30
2018-04-25T21:46:30.253Z,69.50
2018-04-25T21:48:58.495Z,69.50
2018-04-25T21:51:27.631Z,71.10
2018-04-25T21:53:55.875Z,71.00
2018-04-25T21:56:24.907Z,72.70
2018-04-25T21:58:53.183Z,72.50
2018-04-25T22:01:21.427Z,73.10
2018-04-25T22:03:49.737Z,74.00
2018-04-25T22:06:18.722Z,75.40
2018-04-25T22:08:46.967Z,75.00
2018-04-25T22:11:15.270Z,75.50
2018-04-25T22:13:43.512Z,75.80
2018-04-25T22:16:12.515Z,76.70
2018-04-25T22:18:40.762Z,76.70
2018-04-25T22:21:09.811Z,77.60
2018-04-25T22:23:38.050Z,77.60
2018-04-25T22:26:07.079Z,78.60
2018-04-25T22:28:35.353Z,78.60
2018-04-25T22:31:03.585Z,78.90
2018-04-25T22:33:32.587Z,80.70
2018-04-25T22:36:01.624Z,80.30
2018-04-25T22:38:29.863Z,80.30
2018-04-25T22:40:58.854Z,81.10
2018-04-25T22:43:27.578Z,81.00
2018-04-25T22:45:55.816Z,81.20
2018-04-25T22:48:24.842Z,81.80
2018-04-25T22:50:53.067Z,81.90
2018-04-25T22:53:21.307Z,82.40
2018-04-25T22:55:49.538Z,83.20
2018-04-25T22:58:18.547Z,84.20
2018-04-25T23:00:46.789Z,84.20
2018-04-25T23:03:15.099Z,84.70
2018-04-25T23:05:43.381Z,85.80
2018-04-25T23:08:11.662Z,85.70
2018-04-25T23:10:39.878Z,86.20
2018-04-25T23:13:08.127Z,86.70
2018-04-25T23:15:36.355Z,87.10
2018-04-25T23:18:04.603Z,87.80
2018-04-25T23:20:32.926Z,87.70
2018-04-25T23:23:01.156Z,87.80
2018-04-25T23:25:29.391Z,87.40
2018-04-25T23:27:57.651Z,87.80
2018-04-25T23:30:25.886Z,87.60
2018-04-25T23:32:54.883Z,87.90
2018-04-25T23:35:23.911Z,87.30
2018-04-25T23:37:52.847Z,87.30
2018-04-25T23:40:21.183Z,87.00
2018-04-25T23:42:49.421Z,87.20
2018-04-25T23:45:18.426Z,87.20
2018-04-25T23:47:46.723Z,87.20
2018-04-25T23:50:15.048Z,87.20
2018-04-25T23:52:43.278Z,87.20
2018-04-25T23:55:11.550Z,87.00
2018-04-25T23:57:39.782Z,86.90
